createdAt,value
2023-04-12T00:00:11.349Z,59.49
2023-04-12T00:02:39.546Z,59.27
2023-04-12T00:05:06.634Z,59.43
2023-04-12T00:07:33.016Z,59.22
2023-04-12T00:09:59.567Z,59.67
2023-04-12T00:12:25.932Z,59.45
2023-04-12T00:14:52.357Z,59.90
2023-04-12T00:17:19.227Z,59.60
2023-04-12T00:19:47.846Z,59.46
2023-04-12T00:22:14.863Z,60.31
2023-04-12T00:24:41.754Z,60.26
2023-04-12T00:27:08.638Z,60.09
2023-04-12T00:29:36.021Z,60.23
2023-04-12T00:32:03.748Z,60.08
2023-04-12T00:34:30.368Z,60.69
2023-04-12T00:36:56.711Z,60.66
2023-04-12T00:39:23.284Z,60.51
2023-04-12T00:41:49.608Z,60.72
2023-04-12T00:44:18.113Z,60.70
2023-04-12T00:46:47.386Z,61.77
2023-04-12T00:49:15.367Z,62.24
2023-04-12T00:51:43.150Z,62.35
2023-04-12T00:54:10.993Z,63.20
2023-04-12T00:56:38.261Z,63.50
2023-04-12T00:59:05.199Z,64.21
2023-04-12T01:01:31.985Z,64.77
2023-04-12T01:04:01.380Z,65.65
2023-04-12T01:06:41.175Z,66.36
2023-04-12T01:09:22.371Z,67.34
2023-04-12T01:12:08.925Z,67.46
2023-04-12T01:14:56.796Z,67.98
2023-04-12T01:17:29.091Z,68.19
2023-04-12T01:20:13.053Z,68.09
2023-04-12T01:23:02.303Z,68.58
2023-04-12T01:25:39.128Z,68.48
2023-04-12T01:28:08.996Z,68.68
2023-04-12T01:30:36.866Z,68.89
2023-04-12T01:33:06.594Z,69.17
2023-04-12T01:35:35.126Z,69.43
2023-04-12T01:38:03.109Z,69.65
2023-04-12T01:40:31.243Z,69.64
2023-04-12T01:43:07.500Z,70.08
2023-04-12T01:45:34.355Z,70.59
2023-04-12T01:48:06.090Z,71.58
2023-04-12T01:50:41.351Z,71.51
2023-04-12T01:53:20.345Z,71.59
2023-04-12T01:55:49.415Z,72.12
2023-04-12T01:58:20.789Z,72.51
2023-04-12T02:00:49.004Z,72.30
2023-04-12T02:03:16.572Z,72.80
2023-04-12T02:05:43.081Z,73.03
2023-04-12T02:08:09.794Z,73.02
2023-04-12T02:10:39.600Z,74.20
2023-04-12T02:13:06.500Z,74.02
2023-04-12T02:15:33.305Z,74.78
2023-04-12T02:18:00.355Z,75.41
2023-04-12T02:20:27.242Z,75.56
2023-04-12T02:22:54.252Z,76.20
2023-04-12T02:25:20.900Z,75.64
2023-04-12T02:27:48.518Z,76.62
2023-04-12T02:30:15.258Z,76.76
2023-04-12T02:32:45.557Z,76.54
2023-04-12T02:35:19.394Z,76.27
2023-04-12T02:37:49.775Z,76.32
2023-04-12T02:40:16.310Z,76.25
2023-04-12T02:42:43.359Z,76.44
2023-04-12T02:45:11.699Z,76.52
2023-04-12T02:47:40.791Z,76.77
2023-04-12T02:50:09.239Z,76.73
2023-04-12T02:52:46.792Z,76.90
2023-04-12T02:55:13.127Z,77.51
2023-04-12T02:57:39.533Z,77.97
2023-04-12T03:00:15.186Z,78.30
2023-04-12T03:02:53.270Z,78.56
2023-04-12T03:05:24.584Z,77.83
2023-04-12T03:07:51.737Z,78.39
2023-04-12T03:10:22.546Z,78.81
2023-04-12T03:12:56.018Z,79.42
2023-04-12T03:15:29.795Z,79.28
2023-04-12T03:17:56.482Z,79.39
2023-04-12T03:20:28.299Z,79.20
2023-04-12T03:23:04.067Z,79.16
2023-04-12T03:25:32.578Z,79.20
2023-04-12T03:28:12.511Z,78.95
2023-04-12T03:30:48.245Z,79.19
2023-04-12T03:33:17.156Z,79.35
2023-04-12T03:35:45.313Z,78.74
2023-04-12T03:38:13.012Z,78.71
2023-04-12T03:40:41.521Z,79.15
2023-04-12T03:43:08.505Z,78.68
2023-04-12T03:45:34.947Z,78.91
2023-04-12T03:48:02.624Z,78.39
2023-04-12T03:50:44.476Z,78.05
2023-04-12T03:53:17.355Z,78.63
2023-04-12T03:55:45.959Z,78.30
2023-04-12T03:58:13.438Z,78.71
2023-04-12T04:00:44.441Z,78.17
2023-04-12T04:03:11.816Z,77.95
2023-04-12T04:05:45.389Z,77.80
2023-04-12T04:08:13.470Z,78.11
2023-04-12T04:10:49.670Z,77.49
2023-04-12T04:13:16.257Z,77.76
2023-04-12T04:15:42.964Z,77.24
2023-04-12T04:18:10.454Z,76.97
2023-04-12T04:20:37.621Z,76.83
2023-04-12T04:23:04.934Z,77.03
2023-04-12T04:25:35.073Z,76.67
2023-04-12T04:28:09.611Z,76.54
2023-04-12T04:30:38.759Z,76.71
2023-04-12T04:33:07.951Z,76.78
2023-04-12T04:35:34.555Z,76.74
2023-04-12T04:38:20.564Z,76.56
2023-04-12T04:40:53.145Z,76.96
2023-04-12T04:43:22.183Z,76.90
2023-04-12T04:45:54.543Z,77.01
2023-04-12T04:48:21.312Z,77.50
2023-04-12T04:50:47.690Z,77.75
2023-04-12T04:53:18.484Z,78.28
2023-04-12T04:55:44.994Z,78.56
2023-04-12T04:58:11.789Z,78.35
2023-04-12T05:00:38.697Z,79.31
2023-04-12T05:03:05.339Z,79.11
2023-04-12T05:05:32.475Z,79.49
2023-04-12T05:08:05.875Z,78.91
2023-04-12T05:10:34.319Z,79.61
2023-04-12T05:13:02.240Z,80.18
2023-04-12T05:15:30.660Z,80.77
2023-04-12T05:17:57.088Z,81.18
2023-04-12T05:20:23.710Z,81.15
2023-04-12T05:22:50.128Z,81.64
2023-04-12T05:25:16.737Z,82.31
2023-04-12T05:27:52.217Z,83.59
2023-04-12T05:30:19.768Z,84.05
2023-04-12T05:32:46.270Z,83.55
2023-04-12T05:35:14.348Z,83.90
2023-04-12T05:37:42.850Z,84.69
2023-04-12T05:40:09.778Z,85.12
2023-04-12T05:42:37.420Z,85.90
2023-04-12T05:45:04.828Z,86.30
2023-04-12T05:47:33.775Z,86.89
2023-04-12T05:50:00.815Z,87.05
2023-04-12T05:52:27.200Z,86.84
2023-04-12T05:54:53.762Z,87.56
2023-04-12T05:57:22.148Z,87.76
2023-04-12T05:59:48.840Z,88.50
2023-04-12T06:02:15.593Z,88.42
2023-04-12T06:04:49.310Z,88.35
2023-04-12T06:07:19.141Z,88.71
2023-04-12T06:09:46.015Z,89.31
2023-04-12T06:12:12.348Z,89.45
2023-04-12T06:14:39.640Z,89.14
2023-04-12T06:17:06.679Z,89.17
2023-04-12T06:19:33.097Z,88.77
2023-04-12T06:21:59.468Z,89.27
2023-04-12T06:24:25.891Z,88.94
2023-04-12T06:26:52.219Z,88.96
2023-04-12T06:29:18.917Z,88.56
2023-04-12T06:31:46.619Z,89.07
2023-04-12T06:34:13.244Z,89.18
2023-04-12T06:36:41.468Z,89.34
2023-04-12T06:39:09.528Z,89.34
2023-04-12T06:41:35.878Z,90.34
2023-04-12T06:44:02.188Z,90.32
2023-04-12T06:46:28.979Z,89.68
2023-04-12T06:48:55.519Z,89.64
2023-04-12T06:51:21.963Z,90.24
2023-04-12T06:53:48.302Z,90.56
2023-04-12T06:56:16.570Z,89.90
2023-04-12T06:58:44.710Z,89.61
2023-04-12T07:01:11.287Z,90.49
2023-04-12T07:03:38.849Z,90.23
2023-04-12T07:06:17.786Z,90.49
2023-04-12T07:08:50.640Z,90.39
2023-04-12T07:11:21.441Z,89.99
2023-04-12T07:13:49.135Z,90.76
2023-04-12T07:16:15.581Z,90.83
2023-04-12T07:18:41.994Z,90.64
2023-04-12T07:21:08.351Z,90.40
2023-04-12T07:23:34.724Z,90.01
2023-04-12T07:26:02.256Z,89.37
2023-04-12T07:28:28.800Z,89.56
2023-04-12T07:30:55.387Z,89.69
2023-04-12T07:33:21.940Z,90.80
2023-04-12T07:35:48.630Z,90.30
2023-04-12T07:38:16.697Z,91.22
2023-04-12T07:40:43.534Z,90.60
2023-04-12T07:43:09.847Z,90.09
2023-04-12T07:45:37.448Z,90.45
2023-04-12T07:48:04.136Z,90.90
2023-04-12T07:50:30.701Z,91.23
2023-04-12T07:53:19.737Z,90.52
2023-04-12T07:55:47.139Z,89.94
2023-04-12T07:58:13.641Z,89.93
2023-04-12T08:00:40.042Z,90.21
2023-04-12T08:03:06.596Z,90.06
2023-04-12T08:05:33.039Z,90.75
2023-04-12T08:07:59.405Z,90.36
2023-04-12T08:10:25.795Z,90.37
2023-04-12T08:12:52.171Z,90.25
2023-04-12T08:15:18.600Z,90.81
2023-04-12T08:17:46.581Z,90.73
2023-04-12T08:20:13.069Z,90.56
2023-04-12T08:22:40.079Z,91.20
2023-04-12T08:25:07.466Z,91.12
2023-04-12T08:27:34.186Z,91.28
2023-04-12T08:30:00.550Z,91.39
2023-04-12T08:32:26.934Z,91.39
2023-04-12T08:34:53.270Z,92.15
2023-04-12T08:37:19.574Z,91.97
2023-04-12T08:39:46.202Z,92.44
2023-04-12T08:42:14.862Z,92.64
2023-04-12T08:44:41.590Z,93.48
2023-04-12T08:47:10.549Z,92.52
2023-04-12T08:49:37.890Z,92.01
2023-04-12T08:52:06.514Z,91.42
2023-04-12T08:54:34.166Z,91.43
2023-04-12T08:57:03.400Z,91.08
2023-04-12T08:59:31.399Z,91.52
2023-04-12T09:01:59.149Z,91.39
2023-04-12T09:04:26.677Z,91.67
2023-04-12T09:06:53.120Z,92.19
2023-04-12T09:09:19.457Z,92.14
2023-04-12T09:11:45.894Z,92.08
2023-04-12T09:14:25.700Z,91.84
2023-04-12T09:16:52.108Z,91.28
2023-04-12T09:19:31.882Z,91.80
2023-04-12T09:21:58.555Z,91.77
2023-04-12T09:24:24.928Z,91.38
2023-04-12T09:27:07.088Z,91.64
2023-04-12T09:29:34.137Z,91.74
2023-04-12T09:32:02.008Z,91.90
2023-04-12T09:34:29.956Z,91.92
2023-04-12T09:36:56.787Z,91.61
2023-04-12T09:39:35.464Z,91.51
2023-04-12T09:42:25.634Z,92.11
2023-04-12T09:44:58.602Z,91.95
2023-04-12T09:47:41.797Z,92.08
2023-04-12T09:50:09.458Z,92.12
2023-04-12T09:52:40.270Z,92.04
2023-04-12T09:55:11.577Z,91.99
2023-04-12T09:57:43.930Z,92.45
2023-04-12T10:00:14.271Z,92.33
2023-04-12T10:02:43.865Z,91.63
2023-04-12T10:05:13.309Z,91.49
2023-04-12T10:07:41.984Z,91.22
2023-04-12T10:10:12.166Z,91.08
2023-04-12T10:12:39.973Z,91.21
2023-04-12T10:15:12.729Z,90.70
2023-04-12T10:17:47.164Z,90.30
2023-04-12T10:20:16.787Z,89.99
2023-04-12T10:22:47.312Z,90.46
2023-04-12T10:25:15.425Z,89.83
2023-04-12T10:27:43.538Z,89.30
2023-04-12T10:30:22.732Z,90.52
2023-04-12T10:33:09.444Z,90.39
2023-04-12T10:35:48.093Z,90.37
2023-04-12T10:38:15.603Z,90.11
2023-04-12T10:41:06.932Z,89.73
2023-04-12T10:43:33.342Z,89.63
2023-04-12T10:46:04.266Z,89.68
2023-04-12T10:48:37.552Z,89.07
2023-04-12T10:51:16.079Z,89.05
2023-04-12T10:53:42.478Z,90.18
2023-04-12T10:56:33.892Z,88.00
2023-04-12T10:59:01.820Z,85.74
2023-04-12T11:01:33.692Z,87.52
2023-04-12T11:04:20.337Z,86.46
2023-04-12T11:07:11.539Z,87.17
2023-04-12T11:09:41.932Z,86.31
2023-04-12T11:12:10.941Z,80.19
2023-04-12T11:14:50.958Z,79.73
2023-04-12T11:17:23.121Z,81.04
2023-04-12T11:19:55.964Z,82.27
2023-04-12T11:22:24.737Z,82.53
2023-04-12T11:24:53.396Z,81.10
2023-04-12T11:27:21.475Z,82.13
2023-04-12T11:29:54.319Z,82.20
2023-04-12T11:32:22.085Z,82.72
2023-04-12T11:34:48.642Z,83.09
2023-04-12T11:37:15.582Z,82.79
2023-04-12T11:39:43.701Z,80.36
2023-04-12T11:42:19.280Z,77.62
2023-04-12T11:47:21.291Z,77.73
2023-04-12T11:49:51.310Z,77.85
2023-04-12T11:52:19.314Z,78.48
2023-04-12T11:54:50.763Z,80.27
2023-04-12T11:57:18.902Z,79.51
2023-04-12T11:59:47.138Z,79.18
2023-04-12T12:02:22.902Z,79.46
2023-04-12T12:04:50.998Z,78.36
2023-04-12T12:07:19.227Z,78.82
2023-04-12T12:09:48.717Z,80.08
2023-04-12T12:12:16.013Z,78.63
2023-04-12T12:14:45.410Z,76.35
2023-04-12T12:17:13.980Z,76.93
2023-04-12T12:19:42.500Z,77.30
2023-04-12T12:22:19.945Z,76.51
2023-04-12T12:24:57.808Z,76.26
2023-04-12T12:27:30.258Z,73.88
2023-04-12T12:30:01.364Z,72.95
2023-04-12T12:32:33.291Z,71.70
2023-04-12T12:34:59.724Z,74.20
2023-04-12T12:37:28.323Z,70.64
2023-04-12T12:40:14.022Z,70.50
2023-04-12T12:42:45.682Z,69.91
2023-04-12T12:45:17.085Z,68.18
2023-04-12T12:47:53.801Z,68.65
2023-04-12T12:50:25.050Z,65.81
2023-04-12T12:52:52.904Z,67.42
2023-04-12T12:55:21.136Z,68.46
2023-04-12T12:58:02.049Z,66.91
2023-04-12T13:00:32.921Z,66.59
2023-04-12T13:02:59.620Z,69.35
2023-04-12T13:05:26.381Z,68.77
2023-04-12T13:07:52.793Z,68.34
2023-04-12T13:10:19.231Z,66.64
2023-04-12T13:12:45.921Z,67.79
2023-04-12T13:15:22.469Z,65.36
2023-04-12T13:17:53.859Z,63.66
2023-04-12T13:20:21.070Z,64.99
2023-04-12T13:22:47.505Z,66.28
2023-04-12T13:25:13.961Z,62.91
2023-04-12T13:27:40.417Z,63.09
2023-04-12T13:30:07.435Z,63.08
2023-04-12T13:32:33.934Z,59.36
2023-04-12T13:35:00.547Z,60.12
2023-04-12T13:37:26.995Z,59.29
2023-04-12T13:39:53.372Z,60.17
2023-04-12T13:42:20.032Z,61.73
2023-04-12T13:44:48.449Z,60.02
2023-04-12T13:47:15.647Z,60.14
2023-04-12T13:49:42.389Z,60.42
2023-04-12T13:52:12.408Z,59.69
2023-04-12T13:54:39.782Z,60.65
2023-04-12T13:57:06.388Z,61.08
2023-04-12T13:59:32.942Z,61.14
2023-04-12T14:02:00.390Z,63.50
2023-04-12T14:04:31.220Z,68.96
2023-04-12T14:06:59.328Z,72.29
2023-04-12T14:09:27.668Z,73.94
2023-04-12T14:11:56.001Z,75.13
2023-04-12T14:14:22.712Z,76.50
2023-04-12T14:16:53.688Z,77.43
2023-04-12T14:19:20.645Z,79.79
2023-04-12T14:21:48.072Z,81.84
2023-04-12T14:24:16.021Z,83.34
2023-04-12T14:26:43.318Z,83.95
2023-04-12T14:29:09.982Z,84.28
2023-04-12T14:31:37.218Z,83.90
2023-04-12T14:34:04.517Z,82.73
2023-04-12T14:36:31.739Z,83.50
2023-04-12T14:38:58.296Z,84.93
2023-04-12T14:41:25.544Z,83.80
2023-04-12T14:43:51.923Z,83.97
2023-04-12T14:46:18.400Z,84.15
2023-04-12T14:48:44.841Z,84.07
2023-04-12T14:51:11.282Z,84.39
2023-04-12T14:53:37.606Z,83.70
2023-04-12T14:56:04.025Z,85.29
2023-04-12T14:58:30.617Z,85.13
2023-04-12T15:01:00.786Z,84.89
2023-04-12T15:03:29.774Z,85.95
2023-04-12T15:05:57.992Z,86.26
2023-04-12T15:08:24.420Z,86.87
2023-04-12T15:10:51.192Z,86.35
2023-04-12T15:13:17.711Z,87.08
2023-04-12T15:15:47.050Z,85.81
2023-04-12T15:18:13.727Z,85.85
2023-04-12T15:20:40.059Z,84.27
2023-04-12T15:23:06.523Z,84.13
2023-04-12T15:25:33.366Z,85.05
2023-04-12T15:27:59.784Z,82.39
2023-04-12T15:30:26.172Z,81.28
2023-04-12T15:32:53.233Z,80.66
2023-04-12T15:35:26.636Z,81.89
2023-04-12T15:37:54.875Z,82.63
2023-04-12T15:40:22.502Z,82.25
2023-04-12T15:42:48.872Z,83.35
2023-04-12T15:45:15.190Z,83.33
2023-04-12T15:47:41.611Z,83.22
2023-04-12T15:50:08.710Z,81.41
2023-04-12T15:52:36.016Z,80.47
2023-04-12T15:55:05.218Z,79.92
2023-04-12T15:57:32.239Z,78.99
2023-04-12T15:59:59.581Z,78.56
2023-04-12T16:02:26.327Z,76.19
2023-04-12T16:04:55.815Z,74.72
2023-04-12T16:07:22.546Z,74.67
2023-04-12T16:09:48.906Z,76.13
2023-04-12T16:12:15.287Z,71.95
2023-04-12T16:14:42.115Z,73.02
2023-04-12T16:17:08.460Z,72.40
2023-04-12T16:19:34.798Z,72.99
2023-04-12T16:22:01.701Z,73.35
2023-04-12T16:24:28.455Z,72.35
2023-04-12T16:26:54.976Z,72.46
2023-04-12T16:29:21.314Z,73.22
2023-04-12T16:31:47.661Z,72.78
2023-04-12T16:34:15.651Z,72.63
2023-04-12T16:36:42.890Z,73.67
2023-04-12T16:39:11.214Z,74.03
2023-04-12T16:41:37.759Z,74.38
2023-04-12T16:44:04.077Z,76.14
2023-04-12T16:46:30.585Z,78.75
2023-04-12T16:48:58.950Z,78.87
2023-04-12T16:51:26.104Z,77.90
2023-04-12T16:53:52.473Z,77.67
2023-04-12T16:56:19.849Z,79.00
2023-04-12T16:58:48.706Z,79.69
2023-04-12T17:01:16.842Z,80.22
2023-04-12T17:03:44.051Z,79.69
2023-04-12T17:06:10.657Z,79.67
2023-04-12T17:08:37.093Z,80.07
2023-04-12T17:11:03.598Z,78.70
2023-04-12T17:13:30.676Z,79.24
2023-04-12T17:15:57.314Z,78.07
2023-04-12T17:18:23.702Z,78.84
2023-04-12T17:20:50.024Z,79.28
2023-04-12T17:23:16.365Z,79.06
2023-04-12T17:25:42.829Z,79.11
2023-04-12T17:28:09.448Z,77.25
2023-04-12T17:30:36.015Z,74.19
2023-04-12T17:33:03.043Z,73.84
2023-04-12T17:35:29.638Z,73.50
2023-04-12T17:37:56.355Z,73.15
2023-04-12T17:40:22.837Z,73.72
2023-04-12T17:42:49.279Z,73.81
2023-04-12T17:45:16.021Z,73.93
2023-04-12T17:47:42.832Z,74.10
2023-04-12T17:50:11.069Z,74.64
2023-04-12T17:52:37.874Z,74.30
2023-04-12T17:55:05.628Z,74.27
2023-04-12T17:57:32.209Z,74.71
2023-04-12T17:59:58.657Z,75.00
2023-04-12T18:02:25.415Z,75.26
2023-04-12T18:04:52.110Z,74.75
2023-04-12T18:07:18.513Z,74.94
2023-04-12T18:09:44.943Z,75.18
2023-04-12T18:12:11.853Z,75.75
2023-04-12T18:14:40.326Z,75.57
2023-04-12T18:17:07.411Z,75.91
2023-04-12T18:19:34.013Z,76.27
2023-04-12T18:22:00.388Z,76.13
2023-04-12T18:24:26.909Z,75.98
2023-04-12T18:26:53.352Z,76.01
2023-04-12T18:29:19.817Z,76.42
2023-04-12T18:31:46.405Z,76.59
2023-04-12T18:34:13.903Z,77.03
2023-04-12T18:36:42.172Z,77.03
2023-04-12T18:39:08.800Z,77.41
2023-04-12T18:41:35.734Z,77.67
2023-04-12T18:44:02.718Z,77.96
2023-04-12T18:46:29.507Z,78.46
2023-04-12T18:48:56.262Z,79.19
2023-04-12T18:51:23.156Z,79.86
2023-04-12T18:53:52.970Z,79.98
2023-04-12T18:56:24.188Z,80.72
2023-04-12T18:58:55.901Z,81.45
2023-04-12T19:01:24.627Z,81.71
2023-04-12T19:03:51.417Z,82.12
2023-04-12T19:06:18.158Z,82.51
2023-04-12T19:08:44.693Z,82.05
2023-04-12T19:11:11.136Z,82.35
2023-04-12T19:13:38.304Z,82.13
2023-04-12T19:16:08.768Z,82.59
2023-04-12T19:18:35.209Z,83.04
2023-04-12T19:21:02.648Z,83.25
2023-04-12T19:23:29.525Z,83.06
2023-04-12T19:25:58.361Z,83.56
2023-04-12T19:28:24.954Z,83.55
2023-04-12T19:30:51.739Z,83.98
2023-04-12T19:33:18.756Z,83.96
2023-04-12T19:35:45.107Z,83.97
2023-04-12T19:38:11.925Z,84.44
2023-04-12T19:40:38.297Z,83.79
2023-04-12T19:43:04.748Z,84.53
2023-04-12T19:45:31.488Z,84.16
2023-04-12T19:47:57.921Z,84.31
2023-04-12T19:50:24.852Z,84.62
2023-04-12T19:52:51.516Z,84.64
2023-04-12T19:55:21.237Z,84.18
2023-04-12T19:57:47.799Z,84.17
2023-04-12T20:00:20.549Z,84.35
2023-04-12T20:02:51.008Z,84.51
2023-04-12T20:05:17.803Z,84.77
2023-04-12T20:07:45.114Z,85.04
2023-04-12T20:10:12.929Z,84.94
2023-04-12T20:12:39.536Z,84.94
2023-04-12T20:15:11.622Z,85.26
2023-04-12T20:17:42.801Z,85.29
2023-04-12T20:20:17.139Z,85.43
2023-04-12T20:22:51.632Z,85.72
2023-04-12T20:25:20.012Z,85.62
2023-04-12T20:27:51.802Z,85.64
2023-04-12T20:30:20.298Z,85.43
2023-04-12T20:32:49.130Z,85.06
2023-04-12T20:35:15.604Z,85.12
2023-04-12T20:37:42.154Z,83.48
2023-04-12T20:40:09.354Z,82.30
2023-04-12T20:42:35.756Z,78.98
2023-04-12T20:45:02.106Z,78.79
2023-04-12T20:47:28.505Z,77.02
2023-04-12T20:49:56.203Z,75.26
2023-04-12T20:52:22.718Z,75.08
2023-04-12T20:54:49.126Z,73.35
2023-04-12T20:57:19.585Z,71.82
2023-04-12T20:59:46.503Z,71.59
2023-04-12T21:02:13.083Z,71.39
2023-04-12T21:04:41.056Z,69.97
2023-04-12T21:07:07.537Z,70.32
2023-04-12T21:09:33.952Z,70.85
2023-04-12T21:12:02.676Z,71.20
2023-04-12T21:14:29.304Z,72.21
2023-04-12T21:16:55.735Z,72.67
2023-04-12T21:19:22.783Z,73.43
2023-04-12T21:21:50.976Z,74.05
2023-04-12T21:24:18.340Z,74.79
2023-04-12T21:26:44.914Z,74.94
2023-04-12T21:29:11.562Z,74.45
2023-04-12T21:31:41.425Z,74.56
2023-04-12T21:34:10.117Z,74.14
2023-04-12T21:36:36.498Z,74.14
2023-04-12T21:39:04.119Z,74.44
2023-04-12T21:41:30.493Z,74.43
2023-04-12T21:43:56.941Z,74.81
2023-04-12T21:46:27.603Z,75.81
2023-04-12T21:48:54.308Z,76.08
2023-04-12T21:51:22.553Z,76.47
2023-04-12T21:53:48.909Z,77.22
2023-04-12T21:56:15.290Z,78.03
2023-04-12T21:58:41.698Z,78.91
2023-04-12T22:01:09.206Z,79.13
2023-04-12T22:03:36.306Z,79.30
2023-04-12T22:06:04.856Z,80.01
2023-04-12T22:08:32.667Z,80.19
2023-04-12T22:11:00.025Z,80.28
2023-04-12T22:13:26.557Z,79.88
2023-04-12T22:15:52.882Z,79.57
2023-04-12T22:18:19.539Z,79.49
2023-04-12T22:20:45.989Z,79.21
2023-04-12T22:23:13.708Z,78.44
2023-04-12T22:25:40.141Z,78.35
2023-04-12T22:28:06.558Z,78.50
2023-04-12T22:30:32.969Z,78.68
2023-04-12T22:32:59.921Z,78.46
2023-04-12T22:35:26.986Z,78.43
2023-04-12T22:37:53.404Z,78.85
2023-04-12T22:40:19.993Z,78.96
2023-04-12T22:42:48.048Z,79.30
2023-04-12T22:45:15.942Z,79.39
2023-04-12T22:47:43.276Z,79.39
2023-04-12T22:50:12.494Z,79.68
2023-04-12T22:52:39.767Z,79.96
2023-04-12T22:55:07.762Z,79.73
2023-04-12T22:57:36.430Z,80.08
2023-04-12T23:00:05.676Z,80.40
2023-04-12T23:02:33.555Z,80.89
2023-04-12T23:05:02.347Z,80.92
2023-04-12T23:07:30.169Z,81.09
2023-04-12T23:09:57.678Z,81.39
2023-04-12T23:12:24.646Z,81.12
2023-04-12T23:14:51.184Z,80.51
2023-04-12T23:17:19.571Z,80.09
2023-04-12T23:19:46.342Z,79.33
2023-04-12T23:22:22.328Z,79.06
2023-04-12T23:24:50.880Z,78.92
2023-04-12T23:27:17.289Z,77.35
2023-04-12T23:29:44.301Z,76.74
2023-04-12T23:32:12.333Z,74.92
2023-04-12T23:34:38.798Z,75.12
2023-04-12T23:37:05.166Z,74.71
2023-04-12T23:39:31.667Z,73.68
2023-04-12T23:41:59.117Z,73.17
2023-04-12T23:44:27.461Z,72.93
2023-04-12T23:46:53.875Z,72.11
2023-04-12T23:49:20.642Z,72.34
2023-04-12T23:51:47.330Z,71.26
2023-04-12T23:54:13.679Z,71.23
2023-04-12T23:56:40.042Z,71.23
2023-04-12T23:59:06.849Z,71.55
